sensor_id;sensor_type;location;lat;lon;timestamp;P1;durP1;ratioP1;P2;durP2;ratioP2
46651;SDS011;32377;52.182;5.398;2022-11-04T00:01:55;7.57;;;2.58;;
46651;SDS011;32377;52.182;5.398;2022-11-04T00:04:22;8.73;;;2.35;;
46651;SDS011;32377;52.182;5.398;2022-11-04T00:06:50;9.43;;;2.60;;
46651;SDS011;32377;52.182;5.398;2022-11-04T00:09:20;10.27;;;3.45;;
46651;SDS011;32377;52.182;5.398;2022-11-04T00:11:55;9.05;;;2.92;;
46651;SDS011;32377;52.182;5.398;2022-11-04T00:14:41;10.32;;;3.35;;
46651;SDS011;32377;52.182;5.398;2022-11-04T00:17:10;12.35;;;3.13;;
46651;SDS011;32377;52.182;5.398;2022-11-04T00:19:51;9.00;;;2.67;;
46651;SDS011;32377;52.182;5.398;2022-11-04T00:22:36;7.47;;;2.75;;
46651;SDS011;32377;52.182;5.398;2022-11-04T00:25:22;10.20;;;2.83;;
46651;SDS011;32377;52.182;5.398;2022-11-04T00:28:12;9.70;;;2.90;;
46651;SDS011;32377;52.182;5.398;2022-11-04T00:30:59;5.95;;;2.35;;
46651;SDS011;32377;52.182;5.398;2022-11-04T00:33:47;7.82;;;2.25;;
46651;SDS011;32377;52.182;5.398;2022-11-04T00:36:14;10.60;;;2.30;;
46651;SDS011;32377;52.182;5.398;2022-11-04T00:38:40;8.15;;;2.00;;
46651;SDS011;32377;52.182;5.398;2022-11-04T00:41:06;19.73;;;2.50;;
46651;SDS011;32377;52.182;5.398;2022-11-04T00:43:50;8.57;;;2.17;;
46651;SDS011;32377;52.182;5.398;2022-11-04T00:46:16;7.63;;;1.90;;
46651;SDS011;32377;52.182;5.398;2022-11-04T00:48:41;11.75;;;2.10;;
46651;SDS011;32377;52.182;5.398;2022-11-04T00:51:07;8.68;;;1.90;;
46651;SDS011;32377;52.182;5.398;2022-11-04T00:53:33;7.45;;;1.73;;
46651;SDS011;32377;52.182;5.398;2022-11-04T00:55:58;5.90;;;1.67;;
46651;SDS011;32377;52.182;5.398;2022-11-04T00:58:24;12.05;;;2.30;;
46651;SDS011;32377;52.182;5.398;2022-11-04T01:00:49;9.07;;;2.10;;
46651;SDS011;32377;52.182;5.398;2022-11-04T01:03:15;9.50;;;2.35;;
46651;SDS011;32377;52.182;5.398;2022-11-04T01:05:40;6.05;;;1.85;;
46651;SDS011;32377;52.182;5.398;2022-11-04T01:08:06;8.20;;;2.75;;
46651;SDS011;32377;52.182;5.398;2022-11-04T01:10:33;7.63;;;2.53;;
46651;SDS011;32377;52.182;5.398;2022-11-04T01:13:00;10.60;;;3.08;;
46651;SDS011;32377;52.182;5.398;2022-11-04T01:15:26;13.82;;;4.05;;
46651;SDS011;32377;52.182;5.398;2022-11-04T01:17:51;15.55;;;5.90;;
46651;SDS011;32377;52.182;5.398;2022-11-04T01:20:17;14.75;;;5.28;;
46651;SDS011;32377;52.182;5.398;2022-11-04T01:22:42;14.93;;;5.88;;
46651;SDS011;32377;52.182;5.398;2022-11-04T01:25:08;10.70;;;5.90;;
46651;SDS011;32377;52.182;5.398;2022-11-04T01:27:34;15.70;;;6.13;;
46651;SDS011;32377;52.182;5.398;2022-11-04T01:29:59;14.07;;;5.15;;
46651;SDS011;32377;52.182;5.398;2022-11-04T01:32:26;13.10;;;5.15;;
46651;SDS011;32377;52.182;5.398;2022-11-04T01:34:52;10.38;;;5.10;;
46651;SDS011;32377;52.182;5.398;2022-11-04T01:37:17;12.43;;;6.13;;
46651;SDS011;32377;52.182;5.398;2022-11-04T01:39:43;16.33;;;5.32;;
46651;SDS011;32377;52.182;5.398;2022-11-04T01:42:11;15.63;;;5.68;;
46651;SDS011;32377;52.182;5.398;2022-11-04T01:47:25;12.48;;;4.75;;
46651;SDS011;32377;52.182;5.398;2022-11-04T01:50:06;11.48;;;4.15;;
46651;SDS011;32377;52.182;5.398;2022-11-04T01:52:36;8.52;;;4.00;;
46651;SDS011;32377;52.182;5.398;2022-11-04T01:55:05;9.80;;;4.10;;
46651;SDS011;32377;52.182;5.398;2022-11-04T01:57:35;7.68;;;3.70;;
46651;SDS011;32377;52.182;5.398;2022-11-04T02:00:04;8.73;;;3.78;;
46651;SDS011;32377;52.182;5.398;2022-11-04T02:02:31;13.30;;;3.40;;
46651;SDS011;32377;52.182;5.398;2022-11-04T02:04:59;5.63;;;2.85;;
46651;SDS011;32377;52.182;5.398;2022-11-04T02:07:24;10.70;;;2.83;;
46651;SDS011;32377;52.182;5.398;2022-11-04T02:09:50;7.07;;;2.70;;
46651;SDS011;32377;52.182;5.398;2022-11-04T02:12:16;6.53;;;2.60;;
46651;SDS011;32377;52.182;5.398;2022-11-04T02:15:00;15.27;;;2.90;;
46651;SDS011;32377;52.182;5.398;2022-11-04T02:17:29;6.63;;;2.40;;
46651;SDS011;32377;52.182;5.398;2022-11-04T02:30:34;7.13;;;1.85;;
46651;SDS011;32377;52.182;5.398;2022-11-04T02:35:59;5.22;;;2.17;;
46651;SDS011;32377;52.182;5.398;2022-11-04T02:41:38;3.72;;;1.10;;
46651;SDS011;32377;52.182;5.398;2022-11-04T02:46:57;4.22;;;1.52;;
46651;SDS011;32377;52.182;5.398;2022-11-04T02:49:33;2.75;;;1.45;;
46651;SDS011;32377;52.182;5.398;2022-11-04T02:52:09;11.02;;;1.60;;
46651;SDS011;32377;52.182;5.398;2022-11-04T02:54:59;10.52;;;1.63;;
46651;SDS011;32377;52.182;5.398;2022-11-04T02:57:29;4.20;;;1.42;;
46651;SDS011;32377;52.182;5.398;2022-11-04T03:00:03;2.97;;;1.13;;
46651;SDS011;32377;52.182;5.398;2022-11-04T03:02:38;2.83;;;1.35;;
46651;SDS011;32377;52.182;5.398;2022-11-04T03:05:12;2.90;;;1.40;;
46651;SDS011;32377;52.182;5.398;2022-11-04T03:07:42;4.80;;;1.13;;
46651;SDS011;32377;52.182;5.398;2022-11-04T03:10:21;3.88;;;1.30;;
46651;SDS011;32377;52.182;5.398;2022-11-04T03:12:54;6.72;;;1.85;;
46651;SDS011;32377;52.182;5.398;2022-11-04T03:15:26;7.00;;;1.50;;
46651;SDS011;32377;52.182;5.398;2022-11-04T03:20:27;4.50;;;1.55;;
46651;SDS011;32377;52.182;5.398;2022-11-04T03:22:56;3.13;;;1.80;;
46651;SDS011;32377;52.182;5.398;2022-11-04T03:26:08;6.60;;;2.25;;
46651;SDS011;32377;52.182;5.398;2022-11-04T03:30:50;5.70;;;2.50;;
46651;SDS011;32377;52.182;5.398;2022-11-04T03:34:02;5.40;;;2.95;;
46651;SDS011;32377;52.182;5.398;2022-11-04T03:36:13;7.10;;;3.05;;
46651;SDS011;32377;52.182;5.398;2022-11-04T03:38:39;6.53;;;2.95;;
46651;SDS011;32377;52.182;5.398;2022-11-04T03:41:11;5.50;;;3.45;;
46651;SDS011;32377;52.182;5.398;2022-11-04T03:43:43;5.70;;;2.97;;
46651;SDS011;32377;52.182;5.398;2022-11-04T03:46:08;11.68;;;3.95;;
46651;SDS011;32377;52.182;5.398;2022-11-04T03:48:35;10.57;;;3.60;;
46651;SDS011;32377;52.182;5.398;2022-11-04T03:51:00;10.82;;;3.45;;
46651;SDS011;32377;52.182;5.398;2022-11-04T03:53:26;8.25;;;3.35;;
46651;SDS011;32377;52.182;5.398;2022-11-04T03:56:03;8.40;;;3.60;;
46651;SDS011;32377;52.182;5.398;2022-11-04T04:03:58;10.13;;;4.25;;
46651;SDS011;32377;52.182;5.398;2022-11-04T04:06:37;11.80;;;4.35;;
46651;SDS011;32377;52.182;5.398;2022-11-04T04:09:07;7.78;;;4.05;;
46651;SDS011;32377;52.182;5.398;2022-11-04T04:14:30;9.10;;;4.80;;
46651;SDS011;32377;52.182;5.398;2022-11-04T04:17:05;9.40;;;5.15;;
46651;SDS011;32377;52.182;5.398;2022-11-04T04:19:54;15.05;;;6.03;;
46651;SDS011;32377;52.182;5.398;2022-11-04T04:22:24;10.88;;;6.00;;
46651;SDS011;32377;52.182;5.398;2022-11-04T04:24:55;11.07;;;5.43;;
46651;SDS011;32377;52.182;5.398;2022-11-04T04:27:42;14.18;;;5.88;;
46651;SDS011;32377;52.182;5.398;2022-11-04T04:30:10;9.85;;;4.85;;
46651;SDS011;32377;52.182;5.398;2022-11-04T04:32:40;11.27;;;5.25;;
46651;SDS011;32377;52.182;5.398;2022-11-04T04:35:11;12.90;;;5.53;;
46651;SDS011;32377;52.182;5.398;2022-11-04T04:37:57;10.95;;;5.50;;
46651;SDS011;32377;52.182;5.398;2022-11-04T04:40:46;9.27;;;5.50;;
46651;SDS011;32377;52.182;5.398;2022-11-04T04:43:42;13.15;;;5.47;;
46651;SDS011;32377;52.182;5.398;2022-11-04T04:46:28;20.98;;;6.85;;
46651;SDS011;32377;52.182;5.398;2022-11-04T04:48:55;14.95;;;7.85;;
46651;SDS011;32377;52.182;5.398;2022-11-04T04:51:31;13.27;;;7.72;;
46651;SDS011;32377;52.182;5.398;2022-11-04T04:53:57;20.55;;;10.40;;
46651;SDS011;32377;52.182;5.398;2022-11-04T04:56:23;23.17;;;12.90;;
46651;SDS011;32377;52.182;5.398;2022-11-04T04:58:48;31.00;;;15.25;;
46651;SDS011;32377;52.182;5.398;2022-11-04T05:01:14;37.00;;;18.88;;
46651;SDS011;32377;52.182;5.398;2022-11-04T05:03:40;48.08;;;22.25;;
46651;SDS011;32377;52.182;5.398;2022-11-04T05:06:05;45.42;;;22.33;;
46651;SDS011;32377;52.182;5.398;2022-11-04T05:08:31;44.55;;;21.40;;
46651;SDS011;32377;52.182;5.398;2022-11-04T05:10:57;48.45;;;23.05;;
46651;SDS011;32377;52.182;5.398;2022-11-04T05:13:23;62.35;;;23.65;;
46651;SDS011;32377;52.182;5.398;2022-11-04T05:15:53;48.55;;;23.33;;
46651;SDS011;32377;52.182;5.398;2022-11-04T05:18:19;47.00;;;24.00;;
46651;SDS011;32377;52.182;5.398;2022-11-04T05:20:44;45.75;;;23.52;;
46651;SDS011;32377;52.182;5.398;2022-11-04T05:23:10;57.42;;;25.02;;
46651;SDS011;32377;52.182;5.398;2022-11-04T05:25:37;50.30;;;24.20;;
46651;SDS011;32377;52.182;5.398;2022-11-04T05:28:04;45.15;;;23.23;;
46651;SDS011;32377;52.182;5.398;2022-11-04T05:30:30;47.03;;;24.60;;
46651;SDS011;32377;52.182;5.398;2022-11-04T05:32:56;47.08;;;23.80;;
46651;SDS011;32377;52.182;5.398;2022-11-04T05:35:22;47.85;;;23.15;;
46651;SDS011;32377;52.182;5.398;2022-11-04T05:37:48;47.05;;;23.00;;
46651;SDS011;32377;52.182;5.398;2022-11-04T05:40:13;45.13;;;22.38;;
46651;SDS011;32377;52.182;5.398;2022-11-04T05:42:39;49.83;;;24.10;;
46651;SDS011;32377;52.182;5.398;2022-11-04T05:45:05;55.92;;;24.38;;
46651;SDS011;32377;52.182;5.398;2022-11-04T05:47:31;48.70;;;23.17;;
46651;SDS011;32377;52.182;5.398;2022-11-04T05:49:56;49.90;;;24.88;;
46651;SDS011;32377;52.182;5.398;2022-11-04T05:52:22;45.90;;;23.23;;
46651;SDS011;32377;52.182;5.398;2022-11-04T05:54:47;47.42;;;23.98;;
46651;SDS011;32377;52.182;5.398;2022-11-04T05:57:13;44.08;;;22.98;;
46651;SDS011;32377;52.182;5.398;2022-11-04T05:59:39;47.92;;;22.83;;
46651;SDS011;32377;52.182;5.398;2022-11-04T06:02:04;54.28;;;25.30;;
46651;SDS011;32377;52.182;5.398;2022-11-04T06:04:30;49.50;;;24.27;;
46651;SDS011;32377;52.182;5.398;2022-11-04T06:06:55;50.20;;;24.38;;
46651;SDS011;32377;52.182;5.398;2022-11-04T06:09:21;44.05;;;24.10;;
46651;SDS011;32377;52.182;5.398;2022-11-04T06:12:03;48.15;;;23.98;;
46651;SDS011;32377;52.182;5.398;2022-11-04T06:14:42;54.10;;;26.08;;
46651;SDS011;32377;52.182;5.398;2022-11-04T06:17:18;45.13;;;24.48;;
46651;SDS011;32377;52.182;5.398;2022-11-04T06:19:45;46.17;;;25.35;;
46651;SDS011;32377;52.182;5.398;2022-11-04T06:22:12;49.47;;;24.83;;
46651;SDS011;32377;52.182;5.398;2022-11-04T06:24:42;50.17;;;26.15;;
46651;SDS011;32377;52.182;5.398;2022-11-04T06:27:08;57.13;;;27.27;;
46651;SDS011;32377;52.182;5.398;2022-11-04T06:29:34;49.05;;;25.77;;
46651;SDS011;32377;52.182;5.398;2022-11-04T06:32:08;53.40;;;26.10;;
46651;SDS011;32377;52.182;5.398;2022-11-04T06:34:35;57.13;;;26.88;;
46651;SDS011;32377;52.182;5.398;2022-11-04T06:37:01;49.63;;;25.55;;
46651;SDS011;32377;52.182;5.398;2022-11-04T06:39:27;53.45;;;27.17;;
46651;SDS011;32377;52.182;5.398;2022-11-04T06:41:52;53.17;;;26.08;;
46651;SDS011;32377;52.182;5.398;2022-11-04T06:44:18;48.50;;;25.88;;
46651;SDS011;32377;52.182;5.398;2022-11-04T06:46:44;47.60;;;26.70;;
46651;SDS011;32377;52.182;5.398;2022-11-04T06:49:19;57.40;;;25.90;;
46651;SDS011;32377;52.182;5.398;2022-11-04T06:51:47;53.22;;;26.73;;
46651;SDS011;32377;52.182;5.398;2022-11-04T06:54:13;47.00;;;25.40;;
46651;SDS011;32377;52.182;5.398;2022-11-04T06:56:40;48.42;;;24.70;;
46651;SDS011;32377;52.182;5.398;2022-11-04T06:59:15;46.60;;;24.73;;
46651;SDS011;32377;52.182;5.398;2022-11-04T07:01:43;44.45;;;24.48;;
46651;SDS011;32377;52.182;5.398;2022-11-04T07:04:09;48.33;;;25.00;;
46651;SDS011;32377;52.182;5.398;2022-11-04T07:06:34;43.47;;;24.40;;
46651;SDS011;32377;52.182;5.398;2022-11-04T07:09:01;41.80;;;23.17;;
46651;SDS011;32377;52.182;5.398;2022-11-04T07:11:28;45.65;;;24.00;;
46651;SDS011;32377;52.182;5.398;2022-11-04T07:13:55;47.50;;;22.70;;
46651;SDS011;32377;52.182;5.398;2022-11-04T07:16:21;46.63;;;23.25;;
46651;SDS011;32377;52.182;5.398;2022-11-04T07:18:47;42.17;;;22.25;;
46651;SDS011;32377;52.182;5.398;2022-11-04T07:21:14;37.30;;;21.27;;
46651;SDS011;32377;52.182;5.398;2022-11-04T07:23:40;49.55;;;22.40;;
46651;SDS011;32377;52.182;5.398;2022-11-04T07:26:07;38.97;;;22.05;;
46651;SDS011;32377;52.182;5.398;2022-11-04T07:28:34;44.72;;;21.63;;
46651;SDS011;32377;52.182;5.398;2022-11-04T07:31:00;44.35;;;20.42;;
46651;SDS011;32377;52.182;5.398;2022-11-04T07:33:27;41.38;;;20.02;;
46651;SDS011;32377;52.182;5.398;2022-11-04T07:35:53;40.90;;;19.77;;
46651;SDS011;32377;52.182;5.398;2022-11-04T07:38:20;37.95;;;20.35;;
46651;SDS011;32377;52.182;5.398;2022-11-04T07:40:46;39.88;;;19.33;;
46651;SDS011;32377;52.182;5.398;2022-11-04T07:43:12;38.25;;;19.33;;
46651;SDS011;32377;52.182;5.398;2022-11-04T07:45:38;39.78;;;18.45;;
46651;SDS011;32377;52.182;5.398;2022-11-04T07:48:04;38.95;;;18.13;;
46651;SDS011;32377;52.182;5.398;2022-11-04T07:50:30;35.38;;;17.25;;
46651;SDS011;32377;52.182;5.398;2022-11-04T07:52:56;39.42;;;17.95;;
46651;SDS011;32377;52.182;5.398;2022-11-04T07:55:23;33.78;;;17.25;;
46651;SDS011;32377;52.182;5.398;2022-11-04T07:57:48;33.58;;;16.85;;
46651;SDS011;32377;52.182;5.398;2022-11-04T08:00:14;34.38;;;17.05;;
46651;SDS011;32377;52.182;5.398;2022-11-04T08:02:41;33.38;;;16.38;;
46651;SDS011;32377;52.182;5.398;2022-11-04T08:05:08;38.50;;;16.88;;
46651;SDS011;32377;52.182;5.398;2022-11-04T08:07:34;36.28;;;17.15;;
46651;SDS011;32377;52.182;5.398;2022-11-04T08:10:00;39.38;;;16.73;;
46651;SDS011;32377;52.182;5.398;2022-11-04T08:12:26;32.38;;;17.42;;
46651;SDS011;32377;52.182;5.398;2022-11-04T08:14:51;35.97;;;17.73;;
46651;SDS011;32377;52.182;5.398;2022-11-04T08:17:17;36.38;;;17.33;;
46651;SDS011;32377;52.182;5.398;2022-11-04T08:19:43;34.03;;;17.33;;
46651;SDS011;32377;52.182;5.398;2022-11-04T08:22:09;37.58;;;15.93;;
46651;SDS011;32377;52.182;5.398;2022-11-04T08:24:34;33.92;;;17.50;;
46651;SDS011;32377;52.182;5.398;2022-11-04T08:27:01;33.30;;;16.75;;
46651;SDS011;32377;52.182;5.398;2022-11-04T08:29:28;32.90;;;16.75;;
46651;SDS011;32377;52.182;5.398;2022-11-04T08:31:54;34.25;;;15.27;;
46651;SDS011;32377;52.182;5.398;2022-11-04T08:34:20;32.45;;;15.35;;
46651;SDS011;32377;52.182;5.398;2022-11-04T08:36:46;37.83;;;16.90;;
46651;SDS011;32377;52.182;5.398;2022-11-04T08:39:12;36.10;;;16.05;;
46651;SDS011;32377;52.182;5.398;2022-11-04T08:41:41;30.02;;;15.73;;
46651;SDS011;32377;52.182;5.398;2022-11-04T08:44:09;33.17;;;15.77;;
46651;SDS011;32377;52.182;5.398;2022-11-04T08:46:39;32.03;;;14.07;;
46651;SDS011;32377;52.182;5.398;2022-11-04T08:49:05;26.98;;;14.13;;
46651;SDS011;32377;52.182;5.398;2022-11-04T08:51:32;29.25;;;14.02;;
46651;SDS011;32377;52.182;5.398;2022-11-04T08:53:59;26.30;;;13.77;;
46651;SDS011;32377;52.182;5.398;2022-11-04T08:56:29;26.60;;;12.45;;
46651;SDS011;32377;52.182;5.398;2022-11-04T08:58:57;23.83;;;12.05;;
46651;SDS011;32377;52.182;5.398;2022-11-04T09:01:24;25.95;;;11.52;;
46651;SDS011;32377;52.182;5.398;2022-11-04T09:03:51;22.08;;;11.35;;
46651;SDS011;32377;52.182;5.398;2022-11-04T09:06:21;28.17;;;11.50;;
46651;SDS011;32377;52.182;5.398;2022-11-04T09:08:55;26.02;;;11.90;;
46651;SDS011;32377;52.182;5.398;2022-11-04T09:11:26;22.38;;;10.77;;
46651;SDS011;32377;52.182;5.398;2022-11-04T09:13:52;22.60;;;11.38;;
46651;SDS011;32377;52.182;5.398;2022-11-04T09:16:18;21.42;;;12.70;;
46651;SDS011;32377;52.182;5.398;2022-11-04T09:18:43;25.40;;;12.30;;
46651;SDS011;32377;52.182;5.398;2022-11-04T09:21:09;29.33;;;12.27;;
46651;SDS011;32377;52.182;5.398;2022-11-04T09:23:35;28.10;;;13.10;;
46651;SDS011;32377;52.182;5.398;2022-11-04T09:26:05;26.38;;;13.55;;
46651;SDS011;32377;52.182;5.398;2022-11-04T09:28:38;28.02;;;14.02;;
46651;SDS011;32377;52.182;5.398;2022-11-04T09:31:08;24.83;;;12.75;;
46651;SDS011;32377;52.182;5.398;2022-11-04T09:33:36;26.33;;;14.65;;
46651;SDS011;32377;52.182;5.398;2022-11-04T09:36:02;29.25;;;14.00;;
46651;SDS011;32377;52.182;5.398;2022-11-04T09:38:29;28.27;;;13.25;;
46651;SDS011;32377;52.182;5.398;2022-11-04T09:40:54;28.55;;;15.13;;
46651;SDS011;32377;52.182;5.398;2022-11-04T09:45:56;28.73;;;15.85;;
46651;SDS011;32377;52.182;5.398;2022-11-04T09:48:25;33.55;;;16.80;;
46651;SDS011;32377;52.182;5.398;2022-11-04T09:51:00;30.02;;;15.63;;
46651;SDS011;32377;52.182;5.398;2022-11-04T09:56:05;26.80;;;16.95;;
46651;SDS011;32377;52.182;5.398;2022-11-04T09:58:39;28.38;;;16.42;;
46651;SDS011;32377;52.182;5.398;2022-11-04T10:01:09;26.17;;;15.52;;
46651;SDS011;32377;52.182;5.398;2022-11-04T10:03:58;27.23;;;15.48;;
46651;SDS011;32377;52.182;5.398;2022-11-04T10:09:36;29.70;;;15.25;;
46651;SDS011;32377;52.182;5.398;2022-11-04T10:17:49;22.55;;;15.55;;
46651;SDS011;32377;52.182;5.398;2022-11-04T10:20:36;22.65;;;14.68;;
46651;SDS011;32377;52.182;5.398;2022-11-04T10:26:15;22.88;;;14.60;;
46651;SDS011;32377;52.182;5.398;2022-11-04T10:28:51;25.67;;;14.23;;
46651;SDS011;32377;52.182;5.398;2022-11-04T10:31:25;26.20;;;14.90;;
46651;SDS011;32377;52.182;5.398;2022-11-04T10:33:51;24.88;;;15.00;;
46651;SDS011;32377;52.182;5.398;2022-11-04T10:36:20;22.30;;;14.80;;
46651;SDS011;32377;52.182;5.398;2022-11-04T10:38:49;27.83;;;15.07;;
46651;SDS011;32377;52.182;5.398;2022-11-04T10:43:49;25.60;;;15.90;;
46651;SDS011;32377;52.182;5.398;2022-11-04T10:49:21;24.60;;;15.55;;
46651;SDS011;32377;52.182;5.398;2022-11-04T10:51:50;30.73;;;15.82;;
46651;SDS011;32377;52.182;5.398;2022-11-04T10:54:17;30.58;;;15.68;;
46651;SDS011;32377;52.182;5.398;2022-11-04T10:56:47;32.72;;;16.00;;
46651;SDS011;32377;52.182;5.398;2022-11-04T10:59:25;31.95;;;16.65;;
46651;SDS011;32377;52.182;5.398;2022-11-04T11:02:14;28.88;;;15.57;;
46651;SDS011;32377;52.182;5.398;2022-11-04T11:04:40;28.27;;;14.55;;
46651;SDS011;32377;52.182;5.398;2022-11-04T11:07:09;23.90;;;14.50;;
46651;SDS011;32377;52.182;5.398;2022-11-04T11:14:37;21.77;;;14.52;;
46651;SDS011;32377;52.182;5.398;2022-11-04T11:19:54;24.48;;;12.88;;
46651;SDS011;32377;52.182;5.398;2022-11-04T11:22:28;20.60;;;12.90;;
46651;SDS011;32377;52.182;5.398;2022-11-04T11:33:15;24.05;;;12.93;;
46651;SDS011;32377;52.182;5.398;2022-11-04T11:35:47;23.63;;;13.83;;
46651;SDS011;32377;52.182;5.398;2022-11-04T11:38:21;23.17;;;12.93;;
46651;SDS011;32377;52.182;5.398;2022-11-04T11:41:04;18.83;;;12.90;;
46651;SDS011;32377;52.182;5.398;2022-11-04T11:43:35;22.98;;;13.23;;
46651;SDS011;32377;52.182;5.398;2022-11-04T11:46:07;23.92;;;13.77;;
46651;SDS011;32377;52.182;5.398;2022-11-04T11:51:06;23.05;;;12.63;;
46651;SDS011;32377;52.182;5.398;2022-11-04T11:53:36;24.50;;;11.70;;
46651;SDS011;32377;52.182;5.398;2022-11-04T11:56:22;24.60;;;12.00;;
46651;SDS011;32377;52.182;5.398;2022-11-04T11:58:54;25.25;;;10.15;;
46651;SDS011;32377;52.182;5.398;2022-11-04T12:01:41;17.30;;;8.50;;
46651;SDS011;32377;52.182;5.398;2022-11-04T12:04:14;20.70;;;7.88;;
46651;SDS011;32377;52.182;5.398;2022-11-04T12:09:42;17.65;;;8.55;;
46651;SDS011;32377;52.182;5.398;2022-11-04T12:12:20;12.88;;;7.60;;
46651;SDS011;32377;52.182;5.398;2022-11-04T12:33:25;12.30;;;7.68;;
46651;SDS011;32377;52.182;5.398;2022-11-04T12:36:18;14.30;;;7.28;;
46651;SDS011;32377;52.182;5.398;2022-11-04T12:39:23;13.45;;;7.75;;
46651;SDS011;32377;52.182;5.398;2022-11-04T12:42:20;13.77;;;7.25;;
46651;SDS011;32377;52.182;5.398;2022-11-04T12:48:10;17.30;;;7.88;;
46651;SDS011;32377;52.182;5.398;2022-11-04T12:51:03;15.50;;;7.32;;
46651;SDS011;32377;52.182;5.398;2022-11-04T12:56:44;11.65;;;6.20;;
46651;SDS011;32377;52.182;5.398;2022-11-04T13:02:13;13.63;;;6.40;;
46651;SDS011;32377;52.182;5.398;2022-11-04T13:07:36;12.82;;;5.90;;
46651;SDS011;32377;52.182;5.398;2022-11-04T13:10:13;14.20;;;5.90;;
46651;SDS011;32377;52.182;5.398;2022-11-04T13:12:45;10.18;;;5.32;;
46651;SDS011;32377;52.182;5.398;2022-11-04T13:17:52;12.73;;;6.25;;
46651;SDS011;32377;52.182;5.398;2022-11-04T13:20:31;11.57;;;5.90;;
46651;SDS011;32377;52.182;5.398;2022-11-04T13:25:32;5.70;;;1.75;;
46651;SDS011;32377;52.182;5.398;2022-11-04T13:28:03;6.28;;;1.20;;
46651;SDS011;32377;52.182;5.398;2022-11-04T13:33:42;2.88;;;0.60;;
46651;SDS011;32377;52.182;5.398;2022-11-04T13:42:20;1.02;;;0.30;;
46651;SDS011;32377;52.182;5.398;2022-11-04T13:45:02;3.85;;;0.50;;
46651;SDS011;32377;52.182;5.398;2022-11-04T13:47:49;4.15;;;0.70;;
46651;SDS011;32377;52.182;5.398;2022-11-04T13:50:28;0.70;;;0.40;;
46651;SDS011;32377;52.182;5.398;2022-11-04T13:53:05;2.72;;;0.60;;
46651;SDS011;32377;52.182;5.398;2022-11-04T13:55:33;0.95;;;0.47;;
46651;SDS011;32377;52.182;5.398;2022-11-04T13:58:00;3.53;;;0.98;;
46651;SDS011;32377;52.182;5.398;2022-11-04T14:00:29;5.07;;;0.60;;
46651;SDS011;32377;52.182;5.398;2022-11-04T14:05:59;2.83;;;0.50;;
46651;SDS011;32377;52.182;5.398;2022-11-04T14:08:31;2.65;;;0.60;;
46651;SDS011;32377;52.182;5.398;2022-11-04T14:11:09;1.50;;;0.30;;
46651;SDS011;32377;52.182;5.398;2022-11-04T14:13:42;3.42;;;0.40;;
46651;SDS011;32377;52.182;5.398;2022-11-04T14:16:36;3.15;;;0.50;;
46651;SDS011;32377;52.182;5.398;2022-11-04T14:22:06;0.85;;;0.60;;
46651;SDS011;32377;52.182;5.398;2022-11-04T14:24:40;2.53;;;0.63;;
46651;SDS011;32377;52.182;5.398;2022-11-04T14:27:14;4.75;;;0.77;;
46651;SDS011;32377;52.182;5.398;2022-11-04T14:29:49;3.63;;;0.55;;
46651;SDS011;32377;52.182;5.398;2022-11-04T14:32:17;2.15;;;0.70;;
46651;SDS011;32377;52.182;5.398;2022-11-04T14:34:56;4.20;;;0.80;;
46651;SDS011;32377;52.182;5.398;2022-11-04T14:39:57;3.40;;;0.60;;
46651;SDS011;32377;52.182;5.398;2022-11-04T14:42:41;1.73;;;0.55;;
46651;SDS011;32377;52.182;5.398;2022-11-04T14:45:08;3.80;;;0.80;;
46651;SDS011;32377;52.182;5.398;2022-11-04T14:47:40;3.53;;;1.05;;
46651;SDS011;32377;52.182;5.398;2022-11-04T14:50:13;5.18;;;0.80;;
46651;SDS011;32377;52.182;5.398;2022-11-04T14:55:12;6.15;;;0.88;;
46651;SDS011;32377;52.182;5.398;2022-11-04T14:57:51;3.83;;;0.70;;
46651;SDS011;32377;52.182;5.398;2022-11-04T15:02:59;1.95;;;0.80;;
46651;SDS011;32377;52.182;5.398;2022-11-04T15:05:34;4.43;;;1.13;;
46651;SDS011;32377;52.182;5.398;2022-11-04T15:08:23;4.75;;;1.02;;
46651;SDS011;32377;52.182;5.398;2022-11-04T15:16:09;3.72;;;1.30;;
46651;SDS011;32377;52.182;5.398;2022-11-04T15:18:45;2.70;;;1.10;;
46651;SDS011;32377;52.182;5.398;2022-11-04T15:21:12;4.10;;;1.10;;
46651;SDS011;32377;52.182;5.398;2022-11-04T15:23:41;7.25;;;1.38;;
46651;SDS011;32377;52.182;5.398;2022-11-04T15:26:24;3.58;;;1.60;;
46651;SDS011;32377;52.182;5.398;2022-11-04T15:28:52;7.45;;;1.65;;
46651;SDS011;32377;52.182;5.398;2022-11-04T15:31:22;7.35;;;1.98;;
46651;SDS011;32377;52.182;5.398;2022-11-04T15:33:54;7.97;;;2.60;;
46651;SDS011;32377;52.182;5.398;2022-11-04T15:39:30;4.07;;;2.42;;
46651;SDS011;32377;52.182;5.398;2022-11-04T15:41:38;11.10;;;3.75;;
46651;SDS011;32377;52.182;5.398;2022-11-04T15:44:24;7.18;;;2.45;;
46651;SDS011;32377;52.182;5.398;2022-11-04T15:46:53;3.55;;;1.60;;
46651;SDS011;32377;52.182;5.398;2022-11-04T15:49:21;5.97;;;1.48;;
46651;SDS011;32377;52.182;5.398;2022-11-04T15:51:52;1.85;;;1.30;;
46651;SDS011;32377;52.182;5.398;2022-11-04T15:54:39;3.38;;;1.20;;
46651;SDS011;32377;52.182;5.398;2022-11-04T16:00:04;6.47;;;1.52;;
46651;SDS011;32377;52.182;5.398;2022-11-04T16:02:32;3.72;;;1.58;;
46651;SDS011;32377;52.182;5.398;2022-11-04T16:10:30;13.90;;;3.60;;
46651;SDS011;32377;52.182;5.398;2022-11-04T16:12:59;6.68;;;3.80;;
46651;SDS011;32377;52.182;5.398;2022-11-04T16:18:36;11.32;;;4.30;;
46651;SDS011;32377;52.182;5.398;2022-11-04T16:24:06;10.77;;;3.58;;
46651;SDS011;32377;52.182;5.398;2022-11-04T16:26:53;5.47;;;2.97;;
46651;SDS011;32377;52.182;5.398;2022-11-04T16:29:22;8.15;;;3.20;;
46651;SDS011;32377;52.182;5.398;2022-11-04T16:32:06;8.38;;;3.38;;
46651;SDS011;32377;52.182;5.398;2022-11-04T16:34:32;8.60;;;2.85;;
46651;SDS011;32377;52.182;5.398;2022-11-04T16:36:58;11.05;;;3.22;;
46651;SDS011;32377;52.182;5.398;2022-11-04T16:39:24;6.82;;;2.97;;
46651;SDS011;32377;52.182;5.398;2022-11-04T16:41:50;4.97;;;3.42;;
46651;SDS011;32377;52.182;5.398;2022-11-04T16:44:19;11.13;;;4.32;;
46651;SDS011;32377;52.182;5.398;2022-11-04T16:46:46;7.70;;;4.10;;
46651;SDS011;32377;52.182;5.398;2022-11-04T16:49:16;10.20;;;3.83;;
46651;SDS011;32377;52.182;5.398;2022-11-04T16:51:43;9.13;;;3.70;;
46651;SDS011;32377;52.182;5.398;2022-11-04T16:54:10;12.02;;;3.92;;
46651;SDS011;32377;52.182;5.398;2022-11-04T16:56:36;6.90;;;3.72;;
46651;SDS011;32377;52.182;5.398;2022-11-04T16:59:02;11.68;;;3.90;;
46651;SDS011;32377;52.182;5.398;2022-11-04T17:01:28;8.85;;;4.38;;
46651;SDS011;32377;52.182;5.398;2022-11-04T17:03:55;11.45;;;5.05;;
46651;SDS011;32377;52.182;5.398;2022-11-04T17:06:21;11.38;;;4.57;;
46651;SDS011;32377;52.182;5.398;2022-11-04T17:08:47;8.48;;;4.70;;
46651;SDS011;32377;52.182;5.398;2022-11-04T17:11:12;10.18;;;4.60;;
46651;SDS011;32377;52.182;5.398;2022-11-04T17:13:38;8.55;;;5.35;;
46651;SDS011;32377;52.182;5.398;2022-11-04T17:16:04;12.30;;;5.25;;
46651;SDS011;32377;52.182;5.398;2022-11-04T17:18:31;7.88;;;5.03;;
46651;SDS011;32377;52.182;5.398;2022-11-04T17:20:57;13.70;;;4.78;;
46651;SDS011;32377;52.182;5.398;2022-11-04T17:23:24;9.70;;;4.13;;
46651;SDS011;32377;52.182;5.398;2022-11-04T17:25:50;11.60;;;5.10;;
46651;SDS011;32377;52.182;5.398;2022-11-04T17:28:16;11.68;;;5.07;;
46651;SDS011;32377;52.182;5.398;2022-11-04T17:30:42;13.13;;;5.18;;
46651;SDS011;32377;52.182;5.398;2022-11-04T17:33:12;16.25;;;5.68;;
46651;SDS011;32377;52.182;5.398;2022-11-04T17:35:38;9.68;;;5.00;;